X  Close Metar Aviation Weather Data     K49A Gilmer County Airport
Temperature
61°F Temperature
61°F Dewpoint
100% Humidity



Wind
0 MPH
0 KM/H
0 M/S
0 KTS



Calm
N
Current Conditions

Light Rain, Fog Light Rain, Fog
Pressure 1019.62 (hPa) - 30.11 (inHg)
Visibility 0.2 (mile) - 0.4 (km)
Airport
Airport-code K49A

Location: Gilmer County Airport
Distance: 18 (mi)

Metar:
K49A 091135Z AUTO 00000KT 1/4SM -RA FG OVC002 16/16 A3011 RMK AO2

Time: 12-09-2022 06:35 EST